createdAt,value
2022-09-20T00:00:47.367Z,23.06
2022-09-20T00:03:15.355Z,22.92
2022-09-20T00:05:44.490Z,23.06
2022-09-20T00:08:16.695Z,23.05
2022-09-20T00:10:43.680Z,23.05
2022-09-20T00:13:13.593Z,23.06
2022-09-20T00:15:44.820Z,23.06
2022-09-20T00:18:12.068Z,23.06
2022-09-20T00:20:48.910Z,23.06
2022-09-20T00:23:16.296Z,23.00
2022-09-20T00:25:43.517Z,23.05
2022-09-20T00:28:11.214Z,23.06
2022-09-20T00:30:38.220Z,23.05
2022-09-20T00:33:04.980Z,23.04
2022-09-20T00:35:31.596Z,23.05
2022-09-20T00:37:58.128Z,22.93
2022-09-20T00:40:27.056Z,22.96
2022-09-20T00:42:53.941Z,23.04
2022-09-20T00:45:25.951Z,23.05
2022-09-20T00:48:15.934Z,23.04
2022-09-20T00:50:47.082Z,23.04
2022-09-20T00:53:18.857Z,23.04
2022-09-20T00:55:50.067Z,23.04
2022-09-20T00:58:20.019Z,23.04
2022-09-20T01:00:48.802Z,23.04
2022-09-20T01:03:20.583Z,23.04
2022-09-20T01:05:47.160Z,23.04
2022-09-20T01:08:15.795Z,23.04
2022-09-20T01:10:43.031Z,23.03
2022-09-20T01:13:09.533Z,23.03
2022-09-20T01:15:38.391Z,23.04
2022-09-20T01:18:07.160Z,22.95
2022-09-20T01:20:38.838Z,23.03
2022-09-20T01:23:05.308Z,23.03
2022-09-20T01:25:56.937Z,23.03
2022-09-20T01:28:24.487Z,22.91
2022-09-20T01:31:25.684Z,23.04
2022-09-20T01:33:59.764Z,23.03
2022-09-20T01:36:50.884Z,23.02
2022-09-20T01:39:29.729Z,23.03
2022-09-20T01:42:06.565Z,23.02
2022-09-20T01:44:46.900Z,22.98
2022-09-20T01:47:35.667Z,23.02
2022-09-20T01:50:21.051Z,22.89
2022-09-20T01:52:50.860Z,23.01
2022-09-20T01:56:08.577Z,23.01
2022-09-20T01:59:23.310Z,23.01
2022-09-20T02:01:53.195Z,23.02
2022-09-20T02:04:44.754Z,23.01
2022-09-20T02:07:38.220Z,23.01
2022-09-20T02:10:17.680Z,23.00
2022-09-20T02:12:54.123Z,23.01
2022-09-20T02:15:42.716Z,23.01
2022-09-20T02:18:18.139Z,23.00
2022-09-20T02:20:56.196Z,23.01
2022-09-20T02:23:41.914Z,23.01
2022-09-20T02:26:26.868Z,23.00
2022-09-20T02:29:14.591Z,23.00
2022-09-20T02:32:07.369Z,22.96
2022-09-20T02:34:51.924Z,23.00
2022-09-20T02:37:30.688Z,23.00
2022-09-20T02:40:34.963Z,22.99
2022-09-20T02:43:23.228Z,22.98
2022-09-20T02:46:01.713Z,22.96
2022-09-20T02:48:42.680Z,22.97
2022-09-20T02:51:14.263Z,22.99
2022-09-20T02:54:03.623Z,22.99
2022-09-20T02:57:21.503Z,23.00
2022-09-20T03:00:02.176Z,22.98
2022-09-20T03:02:40.880Z,22.98
2022-09-20T03:05:19.570Z,22.98
2022-09-20T03:08:04.736Z,22.98
2022-09-20T03:11:02.131Z,22.98
2022-09-20T03:14:02.770Z,22.98
2022-09-20T03:16:57.869Z,22.97
2022-09-20T03:19:46.061Z,22.97
2022-09-20T03:22:38.528Z,22.96
2022-09-20T03:25:11.219Z,22.96
2022-09-20T03:27:41.040Z,22.96
2022-09-20T03:30:28.918Z,22.97
2022-09-20T03:33:29.955Z,22.97
2022-09-20T03:36:20.647Z,22.98
2022-09-20T03:39:18.379Z,22.97
2022-09-20T03:41:57.856Z,22.86
2022-09-20T03:44:36.717Z,22.96
2022-09-20T03:47:31.913Z,22.97
2022-09-20T03:50:04.534Z,22.96
2022-09-20T03:52:45.863Z,22.97
2022-09-20T03:55:14.064Z,22.96
2022-09-20T03:57:46.555Z,22.96
2022-09-20T04:00:31.632Z,22.97
2022-09-20T04:03:25.695Z,22.97
2022-09-20T04:05:58.059Z,22.96
2022-09-20T04:09:02.059Z,22.96
2022-09-20T04:11:42.662Z,22.95
2022-09-20T04:14:25.387Z,22.96
2022-09-20T04:17:05.809Z,22.96
2022-09-20T04:19:44.734Z,22.96
2022-09-20T04:22:11.942Z,22.97
2022-09-20T04:24:38.932Z,22.96
2022-09-20T04:27:10.391Z,22.98
2022-09-20T04:29:46.460Z,22.97
2022-09-20T04:32:32.195Z,22.97
2022-09-20T04:35:39.577Z,22.97
2022-09-20T04:38:14.801Z,22.96
2022-09-20T04:41:34.372Z,22.91
2022-09-20T04:44:13.001Z,22.95
2022-09-20T04:46:39.501Z,22.95
2022-09-20T04:49:24.784Z,22.95
2022-09-20T04:52:22.289Z,22.95
2022-09-20T04:55:16.607Z,22.95
2022-09-20T04:58:01.504Z,22.96
2022-09-20T05:00:55.843Z,22.96
2022-09-20T05:03:41.264Z,22.97
2022-09-20T05:06:16.816Z,22.96
2022-09-20T05:09:08.226Z,22.96
2022-09-20T05:11:48.524Z,22.96
2022-09-20T05:14:38.584Z,22.98
2022-09-20T05:17:41.455Z,22.86
2022-09-20T05:20:40.205Z,22.98
2022-09-20T05:23:31.068Z,22.98
2022-09-20T05:26:08.001Z,22.99
2022-09-20T05:29:02.308Z,22.99
2022-09-20T05:31:38.904Z,22.99
2022-09-20T05:34:33.010Z,23.00
2022-09-20T05:37:12.265Z,22.99
2022-09-20T05:39:50.236Z,22.99
2022-09-20T05:42:23.041Z,23.00
2022-09-20T05:45:07.871Z,22.99
2022-09-20T05:47:55.088Z,23.00
2022-09-20T05:50:27.466Z,23.01
2022-09-20T05:52:59.326Z,23.00
2022-09-20T05:55:44.455Z,23.02
2022-09-20T05:58:38.973Z,23.01
2022-09-20T06:01:29.785Z,23.01
2022-09-20T06:04:12.698Z,23.02
2022-09-20T06:06:57.363Z,23.03
2022-09-20T06:09:45.296Z,23.04
2022-09-20T06:12:38.259Z,23.05
2022-09-20T06:15:19.683Z,23.05
2022-09-20T06:18:15.227Z,23.05
2022-09-20T06:21:00.344Z,23.06
2022-09-20T06:23:27.587Z,23.06
2022-09-20T06:25:59.839Z,23.07
2022-09-20T06:28:30.816Z,23.07
2022-09-20T06:30:57.512Z,23.08
2022-09-20T06:33:25.466Z,23.08
2022-09-20T06:35:59.183Z,23.10
2022-09-20T06:39:02.684Z,23.12
2022-09-20T06:41:32.390Z,23.11
2022-09-20T06:44:05.465Z,23.10
2022-09-20T06:46:34.321Z,23.10
2022-09-20T06:49:01.037Z,23.09
2022-09-20T06:51:33.665Z,23.10
2022-09-20T06:54:01.853Z,23.10
2022-09-20T06:56:31.304Z,23.09
2022-09-20T06:58:58.140Z,23.09
2022-09-20T07:01:30.097Z,23.10
2022-09-20T07:03:58.585Z,23.09
2022-09-20T07:06:25.391Z,23.10
2022-09-20T07:08:52.077Z,23.09
2022-09-20T07:11:18.895Z,23.08
2022-09-20T07:13:50.726Z,23.10
2022-09-20T07:16:17.693Z,23.10
2022-09-20T07:18:44.279Z,23.10
2022-09-20T07:21:18.959Z,22.70
2022-09-20T07:23:46.079Z,23.11
2022-09-20T07:26:27.797Z,23.11
2022-09-20T07:28:55.411Z,23.12
2022-09-20T07:31:24.154Z,23.12
2022-09-20T07:33:53.747Z,23.12
2022-09-20T07:36:20.551Z,23.13
2022-09-20T07:38:50.112Z,23.13
2022-09-20T07:41:19.045Z,23.14
2022-09-20T07:43:46.551Z,23.14
2022-09-20T07:46:15.989Z,23.15
2022-09-20T07:48:42.680Z,23.15
2022-09-20T07:51:13.558Z,23.15
2022-09-20T07:53:41.111Z,23.16
2022-09-20T07:56:18.343Z,23.17
2022-09-20T07:58:48.726Z,23.17
2022-09-20T08:01:21.002Z,23.18
2022-09-20T08:03:47.852Z,23.18
2022-09-20T08:06:16.279Z,23.18
2022-09-20T08:08:43.451Z,23.18
2022-09-20T08:11:12.719Z,23.19
2022-09-20T08:16:28.957Z,23.09
2022-09-20T08:18:58.739Z,23.21
2022-09-20T08:21:27.743Z,23.23
2022-09-20T08:23:54.448Z,23.23
2022-09-20T08:26:24.512Z,23.24
2022-09-20T08:28:53.216Z,23.24
2022-09-20T08:31:22.048Z,23.25
2022-09-20T08:33:50.396Z,23.26
2022-09-20T08:36:22.494Z,23.26
2022-09-20T08:41:39.394Z,23.27
2022-09-20T08:44:14.930Z,23.28
2022-09-20T08:46:56.175Z,23.28
2022-09-20T08:49:27.552Z,23.29
2022-09-20T08:51:58.005Z,23.30
2022-09-20T08:54:32.688Z,23.30
2022-09-20T08:57:10.833Z,23.31
2022-09-20T08:59:37.454Z,23.21
2022-09-20T09:02:14.018Z,23.31
2022-09-20T09:04:44.697Z,23.29
2022-09-20T09:07:16.252Z,23.33
2022-09-20T09:09:47.308Z,23.33
2022-09-20T09:12:20.907Z,23.35
2022-09-20T09:17:29.597Z,23.34
2022-09-20T09:20:15.371Z,23.34
2022-09-20T09:22:45.515Z,23.36
2022-09-20T09:25:15.229Z,23.37
2022-09-20T09:27:58.468Z,23.35
2022-09-20T09:30:36.027Z,22.97
2022-09-20T09:33:30.712Z,23.37
2022-09-20T09:36:08.926Z,23.37
2022-09-20T09:38:41.478Z,23.38
2022-09-20T09:41:26.852Z,23.39
2022-09-20T09:44:10.387Z,23.37
2022-09-20T09:46:40.032Z,23.41
2022-09-20T09:49:12.079Z,23.43
2022-09-20T09:51:42.416Z,23.44
2022-09-20T09:54:17.685Z,23.44
2022-09-20T09:56:57.322Z,23.46
2022-09-20T09:59:29.891Z,23.46
2022-09-20T10:02:30.885Z,23.48
2022-09-20T10:05:22.375Z,23.47
2022-09-20T10:08:10.957Z,23.47
2022-09-20T10:11:10.180Z,23.48
2022-09-20T10:13:40.896Z,23.49
2022-09-20T10:16:10.533Z,23.50
2022-09-20T10:18:44.041Z,23.51
2022-09-20T10:21:43.417Z,23.51
2022-09-20T10:24:30.231Z,23.51
2022-09-20T10:27:22.551Z,23.51
2022-09-20T10:29:52.994Z,23.51
2022-09-20T10:32:45.745Z,23.51
2022-09-20T10:35:27.635Z,23.51
2022-09-20T10:37:54.383Z,23.51
2022-09-20T10:40:53.616Z,23.52
2022-09-20T10:43:41.858Z,23.53
2022-09-20T10:46:31.476Z,23.53
2022-09-20T10:49:24.861Z,23.55
2022-09-20T10:52:00.783Z,23.44
2022-09-20T10:55:03.513Z,23.56
2022-09-20T10:58:07.473Z,23.57
2022-09-20T11:01:03.730Z,23.55
2022-09-20T11:03:51.184Z,23.55
2022-09-20T11:06:50.520Z,23.54
2022-09-20T11:09:27.464Z,23.54
2022-09-20T11:12:03.384Z,23.54
2022-09-20T11:14:41.328Z,23.54
2022-09-20T11:17:15.761Z,23.55
2022-09-20T11:20:07.674Z,23.55
2022-09-20T11:22:43.687Z,23.55
2022-09-20T11:25:51.895Z,23.54
2022-09-20T11:28:28.100Z,23.54
2022-09-20T11:31:02.440Z,23.51
2022-09-20T11:33:40.754Z,23.52
2022-09-20T11:36:17.597Z,23.58
2022-09-20T11:38:53.627Z,23.59
2022-09-20T11:41:27.215Z,23.66
2022-09-20T11:43:57.291Z,23.68
2022-09-20T11:46:55.888Z,23.68
2022-09-20T11:49:28.535Z,23.68
2022-09-20T11:52:38.185Z,23.68
2022-09-20T11:55:16.596Z,23.71
2022-09-20T11:57:43.756Z,23.74
2022-09-20T12:00:10.629Z,23.69
2022-09-20T12:02:53.364Z,23.76
2022-09-20T12:05:38.956Z,23.77
2022-09-20T12:08:20.768Z,23.77
2022-09-20T12:10:58.912Z,23.77
2022-09-20T12:13:27.647Z,23.78
2022-09-20T12:16:01.170Z,23.83
2022-09-20T12:18:39.180Z,23.85
2022-09-20T12:21:07.377Z,23.88
2022-09-20T12:23:42.942Z,23.88
2022-09-20T12:26:18.682Z,23.91
2022-09-20T12:28:50.955Z,23.93
2022-09-20T12:31:30.904Z,23.95
2022-09-20T12:34:10.624Z,23.89
2022-09-20T12:36:38.583Z,23.99
2022-09-20T12:39:19.100Z,24.02
2022-09-20T12:41:58.556Z,24.02
2022-09-20T12:44:25.056Z,24.02
2022-09-20T12:47:00.118Z,24.05
2022-09-20T12:49:48.496Z,24.06
2022-09-20T12:52:56.153Z,24.08
2022-09-20T12:55:26.135Z,24.09
2022-09-20T12:58:01.922Z,24.11
2022-09-20T13:00:37.038Z,24.12
2022-09-20T13:03:37.210Z,24.14
2022-09-20T13:06:06.675Z,24.15
2022-09-20T13:09:00.776Z,24.16
2022-09-20T13:11:42.450Z,24.17
2022-09-20T13:14:18.618Z,24.17
2022-09-20T13:16:50.053Z,24.18
2022-09-20T13:19:20.504Z,24.18
2022-09-20T13:22:10.302Z,24.19
2022-09-20T13:24:45.021Z,24.14
2022-09-20T13:27:20.197Z,24.15
2022-09-20T13:29:47.265Z,24.19
2022-09-20T13:32:17.051Z,24.20
2022-09-20T13:34:43.883Z,24.20
2022-09-20T13:37:20.997Z,24.21
2022-09-20T13:39:52.947Z,24.22
2022-09-20T13:42:19.821Z,24.22
2022-09-20T13:44:48.407Z,24.22
2022-09-20T13:47:29.269Z,24.23
2022-09-20T13:50:23.220Z,24.24
2022-09-20T13:52:54.076Z,24.22
2022-09-20T13:55:27.041Z,24.25
2022-09-20T13:57:56.651Z,24.12
2022-09-20T14:00:27.823Z,24.27
2022-09-20T14:02:55.480Z,24.27
2022-09-20T14:05:26.275Z,24.29
2022-09-20T14:07:53.788Z,24.29
2022-09-20T14:10:31.874Z,24.30
2022-09-20T14:13:02.066Z,24.23
2022-09-20T14:15:36.396Z,24.30
2022-09-20T14:18:07.039Z,24.20
2022-09-20T14:20:34.319Z,24.31
2022-09-20T14:23:04.051Z,24.32
2022-09-20T14:25:30.937Z,24.31
2022-09-20T14:28:19.917Z,24.31
2022-09-20T14:30:48.345Z,23.94
2022-09-20T14:33:19.427Z,24.31
2022-09-20T14:35:52.940Z,24.31
2022-09-20T14:38:24.773Z,24.24
2022-09-20T14:40:52.300Z,24.29
2022-09-20T14:43:33.782Z,24.28
2022-09-20T14:46:28.508Z,24.32
2022-09-20T14:48:55.288Z,24.33
2022-09-20T14:51:25.192Z,24.33
2022-09-20T14:54:12.903Z,24.33
2022-09-20T14:56:42.619Z,23.97
2022-09-20T14:59:13.845Z,24.34
2022-09-20T15:01:44.954Z,24.35
2022-09-20T15:04:21.582Z,24.35
2022-09-20T15:06:50.049Z,24.34
2022-09-20T15:09:19.363Z,24.36
2022-09-20T15:11:46.294Z,24.28
2022-09-20T15:14:12.837Z,24.37
2022-09-20T15:16:39.457Z,24.39
2022-09-20T15:19:07.982Z,24.39
2022-09-20T15:21:34.601Z,24.38
2022-09-20T15:24:01.381Z,24.39
2022-09-20T15:26:27.986Z,24.39
2022-09-20T15:28:54.651Z,24.41
2022-09-20T15:31:22.172Z,24.40
2022-09-20T15:33:48.719Z,24.39
2022-09-20T15:36:18.932Z,24.40
2022-09-20T15:38:45.670Z,24.27
2022-09-20T15:41:14.355Z,24.31
2022-09-20T15:43:43.178Z,24.26
2022-09-20T15:46:22.106Z,24.27
2022-09-20T15:48:48.732Z,24.27
2022-09-20T15:51:15.455Z,24.24
2022-09-20T15:53:49.324Z,24.23
2022-09-20T15:56:21.172Z,24.22
2022-09-20T15:58:59.385Z,24.21
2022-09-20T16:01:28.213Z,24.22
2022-09-20T16:03:55.939Z,24.24
2022-09-20T16:06:23.809Z,24.28
2022-09-20T16:08:51.916Z,24.28
2022-09-20T16:11:22.942Z,24.27
2022-09-20T16:13:54.823Z,24.24
2022-09-20T16:16:21.822Z,24.21
2022-09-20T16:19:07.417Z,24.08
2022-09-20T16:21:36.457Z,24.22
2022-09-20T16:24:03.293Z,24.23
2022-09-20T16:26:31.318Z,24.24
2022-09-20T16:28:58.330Z,24.25
2022-09-20T16:31:34.522Z,24.26
2022-09-20T16:34:12.612Z,24.28
2022-09-20T16:36:43.411Z,24.30
2022-09-20T16:39:10.973Z,24.28
2022-09-20T16:41:39.069Z,24.27
2022-09-20T16:44:06.157Z,24.27
2022-09-20T16:46:37.003Z,24.28
2022-09-20T16:49:07.032Z,24.31
2022-09-20T16:51:36.422Z,24.33
2022-09-20T16:54:32.099Z,24.33
2022-09-20T16:57:00.430Z,24.33
2022-09-20T16:59:27.210Z,24.32
2022-09-20T17:01:55.807Z,24.31
2022-09-20T17:04:22.574Z,24.30
2022-09-20T17:06:50.246Z,24.31
2022-09-20T17:09:17.100Z,24.31
2022-09-20T17:11:47.043Z,24.29
2022-09-20T17:14:16.333Z,24.26
2022-09-20T17:16:43.712Z,24.24
2022-09-20T17:19:13.106Z,24.20
2022-09-20T17:21:46.194Z,24.20
2022-09-20T17:24:14.077Z,24.14
2022-09-20T17:26:44.419Z,24.20
2022-09-20T17:29:15.392Z,24.19
2022-09-20T17:31:48.748Z,24.17
2022-09-20T17:34:21.457Z,24.13
2022-09-20T17:36:49.021Z,24.12
2022-09-20T17:39:16.459Z,24.12
2022-09-20T17:41:45.967Z,24.10
2022-09-20T17:44:13.199Z,24.06
2022-09-20T17:46:44.266Z,24.04
2022-09-20T17:49:13.008Z,24.08
2022-09-20T17:51:45.803Z,24.06
2022-09-20T17:54:13.979Z,24.04
2022-09-20T17:56:46.391Z,24.03
2022-09-20T17:59:16.303Z,24.04
2022-09-20T18:01:44.633Z,24.04
2022-09-20T18:04:11.993Z,24.01
2022-09-20T18:06:44.100Z,24.07
2022-09-20T18:09:12.225Z,24.07
2022-09-20T18:11:41.488Z,24.07
2022-09-20T18:14:13.295Z,24.08
2022-09-20T18:16:40.325Z,24.13
2022-09-20T18:19:08.386Z,24.22
2022-09-20T18:21:36.831Z,24.28
2022-09-20T18:24:07.774Z,24.30
2022-09-20T18:26:35.468Z,24.30
2022-09-20T18:29:09.426Z,24.27
2022-09-20T18:31:39.067Z,24.25
2022-09-20T18:34:07.668Z,24.28
2022-09-20T18:36:38.576Z,24.28
2022-09-20T18:39:06.540Z,24.27
2022-09-20T18:41:35.926Z,24.26
2022-09-20T18:44:04.228Z,24.28
2022-09-20T18:46:31.284Z,24.26
2022-09-20T18:49:02.351Z,24.24
2022-09-20T18:51:29.111Z,24.22
2022-09-20T18:53:56.661Z,24.25
2022-09-20T18:56:31.923Z,24.24
2022-09-20T18:59:07.991Z,24.20
2022-09-20T19:02:12.324Z,24.19
2022-09-20T19:05:14.782Z,24.22
2022-09-20T19:07:50.694Z,24.18
2022-09-20T19:10:49.321Z,24.16
2022-09-20T19:14:11.895Z,24.19
2022-09-20T19:16:38.655Z,24.19
2022-09-20T19:19:33.824Z,24.17
2022-09-20T19:22:08.088Z,24.16
2022-09-20T19:24:55.535Z,24.19
2022-09-20T19:27:23.429Z,24.17
2022-09-20T19:29:50.286Z,24.16
2022-09-20T19:32:21.143Z,24.11
2022-09-20T19:34:52.099Z,24.19
2022-09-20T19:37:36.598Z,24.18
2022-09-20T19:40:59.505Z,24.15
2022-09-20T19:43:38.330Z,24.18
2022-09-20T19:46:19.054Z,24.18
2022-09-20T19:49:12.859Z,24.16
2022-09-20T19:51:41.373Z,24.15
2022-09-20T19:54:12.057Z,24.17
2022-09-20T19:56:52.893Z,24.11
2022-09-20T19:59:24.714Z,24.14
2022-09-20T20:01:52.500Z,24.13
2022-09-20T20:04:20.584Z,24.17
2022-09-20T20:06:50.399Z,24.15
2022-09-20T20:09:43.489Z,24.13
2022-09-20T20:12:34.121Z,24.13
2022-09-20T20:15:05.691Z,24.16
2022-09-20T20:17:48.464Z,24.13
2022-09-20T20:20:43.892Z,24.11
2022-09-20T20:23:19.149Z,24.13
2022-09-20T20:26:13.836Z,24.14
2022-09-20T20:28:40.460Z,24.11
2022-09-20T20:31:09.143Z,24.10
2022-09-20T20:33:36.877Z,24.13
2022-09-20T20:36:03.512Z,24.06
2022-09-20T20:38:37.229Z,24.11
2022-09-20T20:41:09.648Z,24.09
2022-09-20T20:43:42.003Z,24.12
2022-09-20T20:46:12.160Z,24.12
2022-09-20T20:48:38.699Z,24.11
2022-09-20T20:51:12.608Z,24.08
2022-09-20T20:53:45.194Z,24.11
2022-09-20T20:56:17.139Z,24.10
2022-09-20T20:58:45.028Z,24.10
2022-09-20T21:01:15.723Z,24.07
2022-09-20T21:03:46.365Z,24.09
2022-09-20T21:06:14.780Z,24.10
2022-09-20T21:08:48.310Z,24.08
2022-09-20T21:11:19.747Z,23.92
2022-09-20T21:13:48.336Z,24.09
2022-09-20T21:16:17.827Z,24.09
2022-09-20T21:18:46.428Z,24.06
2022-09-20T21:21:27.397Z,24.01
2022-09-20T21:23:59.447Z,24.07
2022-09-20T21:26:28.276Z,24.06
2022-09-20T21:28:59.640Z,24.05
2022-09-20T21:31:28.474Z,24.02
2022-09-20T21:33:56.020Z,24.05
2022-09-20T21:36:25.292Z,24.04
2022-09-20T21:38:52.378Z,24.02
2022-09-20T21:41:27.503Z,24.02
2022-09-20T21:43:57.086Z,24.05
2022-09-20T21:46:32.582Z,24.03
2022-09-20T21:49:01.558Z,23.89
2022-09-20T21:51:31.219Z,23.92
2022-09-20T21:53:59.658Z,24.04
2022-09-20T21:56:28.865Z,24.03
2022-09-20T21:58:55.775Z,24.02
2022-09-20T22:01:25.300Z,24.00
2022-09-20T22:03:56.464Z,24.04
2022-09-20T22:06:29.552Z,24.04
2022-09-20T22:08:58.406Z,24.00
2022-09-20T22:11:27.492Z,24.00
2022-09-20T22:13:55.631Z,23.91
2022-09-20T22:16:30.719Z,24.01
2022-09-20T22:18:59.640Z,24.00
2022-09-20T22:21:36.648Z,23.99
2022-09-20T22:24:08.553Z,23.63
2022-09-20T22:26:39.961Z,24.00
2022-09-20T22:29:06.612Z,23.98
2022-09-20T22:31:36.799Z,23.97
2022-09-20T22:34:05.867Z,24.00
2022-09-20T22:36:35.335Z,23.99
2022-09-20T22:39:03.735Z,23.96
2022-09-20T22:41:30.284Z,23.90
2022-09-20T22:43:56.819Z,23.99
2022-09-20T22:46:25.652Z,23.98
2022-09-20T22:48:52.585Z,23.97
2022-09-20T22:51:21.859Z,23.95
2022-09-20T22:53:49.313Z,23.98
2022-09-20T22:56:24.864Z,23.99
2022-09-20T22:58:56.094Z,23.96
2022-09-20T23:01:25.277Z,23.94
2022-09-20T23:03:57.842Z,23.98
2022-09-20T23:06:28.064Z,23.97
2022-09-20T23:08:59.018Z,23.95
2022-09-20T23:11:26.123Z,23.84
2022-09-20T23:13:54.980Z,23.97
2022-09-20T23:16:28.139Z,23.94
2022-09-20T23:18:56.303Z,23.94
2022-09-20T23:21:23.104Z,23.94
2022-09-20T23:24:09.755Z,23.95
2022-09-20T23:26:38.735Z,23.95
2022-09-20T23:29:08.108Z,23.92
2022-09-20T23:31:37.043Z,23.92
2022-09-20T23:34:05.894Z,23.95
2022-09-20T23:36:35.510Z,23.94
2022-09-20T23:39:02.075Z,23.93
2022-09-20T23:41:28.859Z,23.89
2022-09-20T23:43:55.604Z,23.93
2022-09-20T23:46:25.302Z,23.93
2022-09-20T23:48:52.614Z,23.91
2022-09-20T23:51:22.493Z,23.88
2022-09-20T23:53:49.531Z,23.92
2022-09-20T23:56:16.035Z,23.92
2022-09-20T23:58:44.051Z,23.88
